createdAt,value
2022-11-14T00:00:47.285Z,12.60
2022-11-14T00:02:09.584Z,11.27
2022-11-14T00:03:31.634Z,12.87
2022-11-14T00:04:54.032Z,12.00
2022-11-14T00:06:16.085Z,12.23
2022-11-14T00:07:38.126Z,11.80
2022-11-14T00:09:00.551Z,11.30
2022-11-14T00:10:23.028Z,11.77
2022-11-14T00:11:45.110Z,11.37
2022-11-14T00:13:07.189Z,12.50
2022-11-14T00:14:29.215Z,10.20
2022-11-14T00:15:56.117Z,10.37
2022-11-14T00:17:18.362Z,9.60
2022-11-14T00:18:40.443Z,9.43
2022-11-14T00:20:03.798Z,8.77
2022-11-14T00:21:25.911Z,8.00
2022-11-14T00:22:48.022Z,8.33
2022-11-14T00:24:10.257Z,7.80
2022-11-14T00:25:33.133Z,8.47
2022-11-14T00:26:55.214Z,7.20
2022-11-14T00:28:17.323Z,8.20
2022-11-14T00:29:39.388Z,8.13
2022-11-14T00:31:01.448Z,8.53
2022-11-14T00:32:23.534Z,9.10
2022-11-14T00:33:45.582Z,8.70
2022-11-14T00:35:09.287Z,8.40
2022-11-14T00:36:31.753Z,7.93
2022-11-14T00:37:54.083Z,8.53
2022-11-14T00:39:16.320Z,8.70
2022-11-14T00:40:38.429Z,8.77
2022-11-14T00:42:00.506Z,9.80
2022-11-14T00:43:22.606Z,9.70
2022-11-14T00:44:44.789Z,9.80
2022-11-14T00:46:06.801Z,9.40
2022-11-14T00:47:28.861Z,9.97
2022-11-14T00:48:50.916Z,9.40
2022-11-14T00:50:12.959Z,10.80
2022-11-14T00:51:35.040Z,9.00
2022-11-14T00:52:57.080Z,9.20
2022-11-14T00:54:19.152Z,9.43
2022-11-14T00:55:42.605Z,9.13
2022-11-14T00:57:04.746Z,9.00
2022-11-14T00:58:27.084Z,9.97
2022-11-14T00:59:49.340Z,9.13
2022-11-14T01:01:11.546Z,8.83
2022-11-14T01:02:33.909Z,8.53
2022-11-14T01:03:55.989Z,9.90
2022-11-14T01:05:18.012Z,8.80
2022-11-14T01:06:40.119Z,9.63
2022-11-14T01:08:02.263Z,9.87
2022-11-14T01:09:24.392Z,10.03
2022-11-14T01:10:51.449Z,8.73
2022-11-14T01:12:13.569Z,9.50
2022-11-14T01:13:35.647Z,9.70
2022-11-14T01:14:57.729Z,9.63
2022-11-14T01:16:20.138Z,10.10
2022-11-14T01:17:42.294Z,12.20
2022-11-14T01:19:04.923Z,11.37
2022-11-14T01:20:26.986Z,11.43
2022-11-14T01:21:49.036Z,10.60
2022-11-14T01:23:13.086Z,12.27
2022-11-14T01:24:35.300Z,11.77
2022-11-14T01:26:05.317Z,14.60
2022-11-14T01:27:31.421Z,13.63
2022-11-14T01:28:54.468Z,13.60
2022-11-14T01:30:16.533Z,12.63
2022-11-14T01:31:38.684Z,14.70
2022-11-14T01:33:00.832Z,13.53
2022-11-14T01:34:23.688Z,12.80
2022-11-14T01:35:45.738Z,13.37
2022-11-14T01:37:07.807Z,10.57
2022-11-14T01:38:30.216Z,11.13
2022-11-14T01:39:52.515Z,10.17
2022-11-14T01:41:16.241Z,9.47
2022-11-14T01:42:38.366Z,9.20
2022-11-14T01:44:00.420Z,8.83
2022-11-14T01:46:12.910Z,9.33
2022-11-14T01:47:35.706Z,8.90
2022-11-14T01:49:02.772Z,9.30
2022-11-14T01:50:25.682Z,9.80
2022-11-14T01:51:52.610Z,9.60
2022-11-14T01:53:14.735Z,9.43
2022-11-14T01:54:41.183Z,9.13
2022-11-14T01:56:05.995Z,10.63
2022-11-14T01:57:33.484Z,10.40
2022-11-14T01:59:21.308Z,9.60
2022-11-14T02:00:44.360Z,10.60
2022-11-14T02:02:13.784Z,8.97
2022-11-14T02:03:42.731Z,9.43
2022-11-14T02:05:09.187Z,10.53
2022-11-14T02:06:31.890Z,9.77
2022-11-14T02:07:53.940Z,9.47
2022-11-14T02:09:16.679Z,9.23
2022-11-14T02:10:38.718Z,10.17
2022-11-14T02:12:02.602Z,11.20
2022-11-14T02:13:24.740Z,10.20
2022-11-14T02:14:49.454Z,9.20
2022-11-14T02:16:11.530Z,10.63
2022-11-14T02:17:33.730Z,10.10
2022-11-14T02:18:55.876Z,10.70
2022-11-14T02:20:24.495Z,9.60
2022-11-14T02:21:46.592Z,10.43
2022-11-14T02:23:12.023Z,12.60
2022-11-14T02:24:34.084Z,10.63
2022-11-14T02:25:56.848Z,11.40
2022-11-14T02:27:18.942Z,10.60
2022-11-14T02:28:40.977Z,10.23
2022-11-14T02:30:10.399Z,10.37
2022-11-14T02:31:32.709Z,10.50
2022-11-14T02:33:10.595Z,11.50
2022-11-14T02:34:33.556Z,10.83
2022-11-14T02:35:55.608Z,12.03
2022-11-14T02:37:17.664Z,11.43
2022-11-14T02:38:39.702Z,11.67
2022-11-14T02:40:01.819Z,11.00
2022-11-14T02:41:23.836Z,11.67
2022-11-14T02:42:45.896Z,12.10
2022-11-14T02:44:07.941Z,10.97
2022-11-14T02:45:30.004Z,12.67
2022-11-14T02:46:52.147Z,12.67
2022-11-14T02:48:14.318Z,13.60
2022-11-14T02:49:36.388Z,13.33
2022-11-14T02:50:58.516Z,11.97
2022-11-14T02:52:20.552Z,12.10
2022-11-14T02:53:42.626Z,14.10
2022-11-14T02:55:05.912Z,12.40
2022-11-14T02:56:28.246Z,14.80
2022-11-14T02:57:50.375Z,14.77
2022-11-14T02:59:12.424Z,13.47
2022-11-14T03:00:34.648Z,13.80
2022-11-14T03:01:56.931Z,14.17
2022-11-14T03:03:19.024Z,13.10
2022-11-14T03:04:41.139Z,13.77
2022-11-14T03:06:04.547Z,13.70
2022-11-14T03:07:26.727Z,14.03
2022-11-14T03:08:48.834Z,13.07
2022-11-14T03:10:11.456Z,14.10
2022-11-14T03:11:33.491Z,14.77
2022-11-14T03:12:56.595Z,13.80
2022-11-14T03:14:18.722Z,15.20
2022-11-14T03:15:40.946Z,14.37
2022-11-14T03:17:03.015Z,14.30
2022-11-14T03:18:25.100Z,14.33
2022-11-14T03:19:47.163Z,15.90
2022-11-14T03:21:14.720Z,14.77
2022-11-14T03:22:36.773Z,13.30
2022-11-14T03:23:58.931Z,14.03
2022-11-14T03:25:21.060Z,14.20
2022-11-14T03:26:43.100Z,14.33
2022-11-14T03:28:05.626Z,15.20
2022-11-14T03:29:27.761Z,14.70
2022-11-14T03:30:49.866Z,15.40
2022-11-14T03:32:11.892Z,15.47
2022-11-14T03:33:35.162Z,13.90
2022-11-14T03:34:57.186Z,16.17
2022-11-14T03:36:19.419Z,15.23
2022-11-14T03:37:41.543Z,16.50
2022-11-14T03:39:04.227Z,16.87
2022-11-14T03:40:26.334Z,15.37
2022-11-14T03:41:48.380Z,14.53
2022-11-14T03:43:10.903Z,15.00
2022-11-14T03:44:33.038Z,14.10
2022-11-14T03:45:58.571Z,15.80
2022-11-14T03:47:20.699Z,18.00
2022-11-14T03:48:42.712Z,14.53
2022-11-14T03:50:05.305Z,18.13
2022-11-14T03:51:27.329Z,16.57
2022-11-14T03:52:50.424Z,15.20
2022-11-14T03:54:12.561Z,15.80
2022-11-14T03:55:34.711Z,18.37
2022-11-14T03:56:56.798Z,18.00
2022-11-14T03:58:19.345Z,17.30
2022-11-14T03:59:41.427Z,17.33
2022-11-14T04:01:03.940Z,16.43
2022-11-14T04:02:26.109Z,18.10
2022-11-14T04:03:48.246Z,17.57
2022-11-14T04:05:10.387Z,17.20
2022-11-14T04:06:32.635Z,17.97
2022-11-14T04:07:54.749Z,17.43
2022-11-14T04:09:16.785Z,18.90
2022-11-14T04:10:38.880Z,18.30
2022-11-14T04:12:00.987Z,19.73
2022-11-14T04:13:23.127Z,19.73
2022-11-14T04:14:45.198Z,19.10
2022-11-14T04:16:08.491Z,18.63
2022-11-14T04:17:33.476Z,20.90
2022-11-14T04:18:57.825Z,18.73
2022-11-14T04:20:19.905Z,19.50
2022-11-14T04:21:41.963Z,20.10
2022-11-14T04:23:04.051Z,21.17
2022-11-14T04:24:26.172Z,19.80
2022-11-14T04:25:48.507Z,18.60
2022-11-14T04:27:10.756Z,19.13
2022-11-14T04:28:33.027Z,18.93
2022-11-14T04:29:55.238Z,20.70
2022-11-14T04:31:17.309Z,20.30
2022-11-14T04:32:39.682Z,20.20
2022-11-14T04:34:01.865Z,20.47
2022-11-14T04:35:23.919Z,21.70
2022-11-14T04:36:45.981Z,20.13
2022-11-14T04:38:08.078Z,19.83
2022-11-14T04:39:30.159Z,20.73
2022-11-14T04:40:52.830Z,19.23
2022-11-14T04:42:14.870Z,19.33
2022-11-14T04:43:37.252Z,21.57
2022-11-14T04:44:59.329Z,20.37
2022-11-14T04:46:21.706Z,21.30
2022-11-14T04:47:44.188Z,19.90
2022-11-14T04:49:06.335Z,21.20
2022-11-14T04:50:28.475Z,19.70
2022-11-14T04:51:50.555Z,20.00
2022-11-14T04:53:12.653Z,20.53
2022-11-14T04:54:34.753Z,19.47
2022-11-14T04:55:56.796Z,20.33
2022-11-14T04:57:18.912Z,22.30
2022-11-14T04:58:40.945Z,21.93
2022-11-14T05:00:07.829Z,21.50
2022-11-14T05:01:30.042Z,23.07
2022-11-14T05:02:52.142Z,22.90
2022-11-14T05:04:14.322Z,20.80
2022-11-14T05:05:41.630Z,21.27
2022-11-14T05:07:04.313Z,20.77
2022-11-14T05:08:26.472Z,21.47
2022-11-14T05:09:48.604Z,20.93
2022-11-14T05:11:18.611Z,23.03
2022-11-14T05:12:40.654Z,20.80
2022-11-14T05:14:02.969Z,19.70
2022-11-14T05:15:25.135Z,23.87
2022-11-14T05:16:47.183Z,24.03
2022-11-14T05:18:09.304Z,22.77
2022-11-14T05:19:31.377Z,20.27
2022-11-14T05:20:53.493Z,22.20
2022-11-14T05:22:15.562Z,22.63
2022-11-14T05:23:37.665Z,22.67
2022-11-14T05:24:59.754Z,22.37
2022-11-14T05:26:21.816Z,23.60
2022-11-14T05:27:43.891Z,22.87
2022-11-14T05:29:06.007Z,23.30
2022-11-14T05:30:28.132Z,23.20
2022-11-14T05:31:50.182Z,23.07
2022-11-14T05:33:12.237Z,24.03
2022-11-14T05:34:34.328Z,24.00
2022-11-14T05:35:56.510Z,23.90
2022-11-14T05:37:18.609Z,24.27
2022-11-14T05:38:42.169Z,23.23
2022-11-14T05:40:05.607Z,24.50
2022-11-14T05:41:27.679Z,26.10
2022-11-14T05:42:49.715Z,25.50
2022-11-14T05:44:11.794Z,26.77
2022-11-14T05:45:33.913Z,25.13
2022-11-14T05:46:56.004Z,25.93
2022-11-14T05:48:18.096Z,24.70
2022-11-14T05:49:40.138Z,25.17
2022-11-14T05:51:04.230Z,25.33
2022-11-14T05:52:26.294Z,24.90
2022-11-14T05:53:48.356Z,26.40
2022-11-14T05:55:10.441Z,24.47
2022-11-14T05:56:32.525Z,23.30
2022-11-14T05:57:57.495Z,25.10
2022-11-14T05:59:19.597Z,25.00
2022-11-14T06:00:48.883Z,26.37
2022-11-14T06:02:14.419Z,25.20
2022-11-14T06:03:42.032Z,25.07
2022-11-14T06:05:04.317Z,25.63
2022-11-14T06:06:26.491Z,25.87
2022-11-14T06:07:48.613Z,23.83
2022-11-14T06:09:10.829Z,25.70
2022-11-14T06:10:35.079Z,27.73
2022-11-14T06:11:57.191Z,25.87
2022-11-14T06:13:19.274Z,25.53
2022-11-14T06:14:41.355Z,25.63
2022-11-14T06:16:06.679Z,25.57
2022-11-14T06:17:28.762Z,25.70
2022-11-14T06:18:54.005Z,26.47
2022-11-14T06:20:16.191Z,25.77
2022-11-14T06:21:38.281Z,27.13
2022-11-14T06:23:00.350Z,26.03
2022-11-14T06:24:23.143Z,26.47
2022-11-14T06:25:45.191Z,27.73
2022-11-14T06:27:07.311Z,27.53
2022-11-14T06:28:30.118Z,27.27
2022-11-14T06:29:52.410Z,27.13
2022-11-14T06:31:14.473Z,26.30
2022-11-14T06:32:36.544Z,26.50
2022-11-14T06:33:58.790Z,26.30
2022-11-14T06:35:20.960Z,27.10
2022-11-14T06:36:43.155Z,25.30
2022-11-14T06:38:05.193Z,26.60
2022-11-14T06:39:27.259Z,28.20
2022-11-14T06:40:49.289Z,28.40
2022-11-14T06:42:11.369Z,26.70
2022-11-14T06:43:38.209Z,26.80
2022-11-14T06:45:00.280Z,26.40
2022-11-14T06:46:23.248Z,27.60
2022-11-14T06:47:45.336Z,27.40
2022-11-14T06:49:07.368Z,26.20
2022-11-14T06:50:29.381Z,25.60
2022-11-14T06:51:52.136Z,27.43
2022-11-14T06:53:14.234Z,28.63
2022-11-14T06:54:36.335Z,27.60
2022-11-14T06:56:07.480Z,29.90
2022-11-14T06:57:29.602Z,27.43
2022-11-14T06:58:51.770Z,25.67
2022-11-14T07:00:14.447Z,26.67
2022-11-14T07:01:37.455Z,28.63
2022-11-14T07:02:59.524Z,27.10
2022-11-14T07:04:21.595Z,25.80
2022-11-14T07:05:43.670Z,24.20
2022-11-14T07:07:06.031Z,25.97
2022-11-14T07:08:28.526Z,26.60
2022-11-14T07:09:50.694Z,26.70
2022-11-14T07:11:25.361Z,25.73
2022-11-14T07:12:48.063Z,27.60
2022-11-14T07:14:10.137Z,25.93
2022-11-14T07:15:32.218Z,26.17
2022-11-14T07:16:54.317Z,26.53
2022-11-14T07:18:18.063Z,26.37
2022-11-14T07:19:40.304Z,26.57
2022-11-14T07:21:05.577Z,24.77
2022-11-14T07:22:27.708Z,26.50
2022-11-14T07:23:49.768Z,25.50
2022-11-14T07:25:11.950Z,25.60
2022-11-14T07:26:34.019Z,27.10
2022-11-14T07:27:57.803Z,25.53
2022-11-14T07:29:19.875Z,26.40
2022-11-14T07:30:42.020Z,25.60
2022-11-14T07:32:04.229Z,26.50
2022-11-14T07:33:26.273Z,25.80
2022-11-14T07:34:48.311Z,24.40
2022-11-14T07:36:11.721Z,25.17
2022-11-14T07:37:33.797Z,25.40
2022-11-14T07:38:55.977Z,25.63
2022-11-14T07:40:19.127Z,26.10
2022-11-14T07:41:41.200Z,26.97
2022-11-14T07:43:03.653Z,26.40
2022-11-14T07:44:25.681Z,25.87
2022-11-14T07:45:47.749Z,25.47
2022-11-14T07:47:09.771Z,24.90
2022-11-14T07:48:32.839Z,26.30
2022-11-14T07:49:55.041Z,25.37
2022-11-14T07:51:19.222Z,25.77
2022-11-14T07:52:42.343Z,24.90
2022-11-14T07:54:04.416Z,24.63
2022-11-14T07:55:26.485Z,26.57
2022-11-14T07:56:48.549Z,22.77
2022-11-14T07:58:10.647Z,24.10
2022-11-14T07:59:32.697Z,26.57
2022-11-14T08:00:54.845Z,23.93
2022-11-14T08:02:16.948Z,25.17
2022-11-14T08:03:45.062Z,23.03
2022-11-14T08:05:07.871Z,23.43
2022-11-14T08:06:30.108Z,22.80
2022-11-14T08:07:52.833Z,24.40
2022-11-14T08:09:14.917Z,23.00
2022-11-14T08:10:36.982Z,24.50
2022-11-14T08:11:59.042Z,24.30
2022-11-14T08:13:36.402Z,22.90
2022-11-14T08:14:58.435Z,24.37
2022-11-14T08:16:20.497Z,22.17
2022-11-14T08:17:42.629Z,24.57
2022-11-14T08:19:04.834Z,22.60
2022-11-14T08:20:27.655Z,23.50
2022-11-14T08:21:49.734Z,22.67
2022-11-14T08:23:12.429Z,22.30
2022-11-14T08:24:34.477Z,23.80
2022-11-14T08:25:59.264Z,22.07
2022-11-14T08:27:21.289Z,21.87
2022-11-14T08:28:43.363Z,22.33
2022-11-14T08:30:05.896Z,22.30
2022-11-14T08:31:28.233Z,23.90
2022-11-14T08:32:50.282Z,23.20
2022-11-14T08:34:12.345Z,22.60
2022-11-14T08:35:34.677Z,23.30
2022-11-14T08:36:57.818Z,21.47
2022-11-14T08:38:19.902Z,25.13
2022-11-14T08:39:41.986Z,23.23
2022-11-14T08:41:04.598Z,22.67
2022-11-14T08:42:26.693Z,23.53
2022-11-14T08:43:48.761Z,24.70
2022-11-14T08:45:10.902Z,23.57
2022-11-14T08:46:32.997Z,23.73
2022-11-14T08:47:55.543Z,25.00
2022-11-14T08:49:17.909Z,21.07
2022-11-14T08:50:40.056Z,22.70
2022-11-14T08:52:02.150Z,22.47
2022-11-14T08:53:24.519Z,23.33
2022-11-14T08:54:46.614Z,23.40
2022-11-14T08:56:10.583Z,26.00
2022-11-14T08:57:32.642Z,25.97
2022-11-14T08:58:54.775Z,26.17
2022-11-14T09:00:17.380Z,25.80
2022-11-14T09:01:39.481Z,28.07
2022-11-14T09:03:01.562Z,29.80
2022-11-14T09:04:23.803Z,30.90
2022-11-14T09:05:52.123Z,28.87
2022-11-14T09:07:14.578Z,28.80
2022-11-14T09:08:36.731Z,30.27
2022-11-14T09:09:58.780Z,27.73
2022-11-14T09:11:21.134Z,29.03
2022-11-14T09:12:43.239Z,29.17
2022-11-14T09:14:05.361Z,29.57
2022-11-14T09:15:28.442Z,31.50
2022-11-14T09:16:50.838Z,33.03
2022-11-14T09:18:13.201Z,31.90
2022-11-14T09:19:35.396Z,31.77
2022-11-14T09:21:08.482Z,33.20
2022-11-14T09:22:31.501Z,33.27
2022-11-14T09:23:58.786Z,34.33
2022-11-14T09:25:22.784Z,33.87
2022-11-14T09:26:44.829Z,36.97
2022-11-14T09:28:07.409Z,37.47
2022-11-14T09:29:29.488Z,37.17
2022-11-14T09:30:51.603Z,41.63
2022-11-14T09:32:13.668Z,40.63
2022-11-14T09:33:35.976Z,42.13
2022-11-14T09:34:58.182Z,43.63
2022-11-14T09:36:20.962Z,42.97
2022-11-14T09:37:43.114Z,41.27
2022-11-14T09:39:05.293Z,43.03
2022-11-14T09:40:27.830Z,41.07
2022-11-14T09:42:05.251Z,42.33
2022-11-14T09:44:15.167Z,41.10
2022-11-14T09:45:48.026Z,39.40
2022-11-14T09:47:20.217Z,36.87
2022-11-14T09:48:43.687Z,35.60
2022-11-14T09:50:14.455Z,39.27
2022-11-14T09:51:45.164Z,40.33
2022-11-14T09:53:14.648Z,39.87
2022-11-14T09:54:53.264Z,40.67
2022-11-14T09:56:22.305Z,42.10
2022-11-14T09:57:45.618Z,41.23
2022-11-14T09:59:12.645Z,42.30
2022-11-14T10:00:50.327Z,40.20
2022-11-14T10:02:50.613Z,40.63
2022-11-14T10:05:03.982Z,39.63
2022-11-14T10:06:46.797Z,38.17
2022-11-14T10:08:20.687Z,37.77
2022-11-14T10:10:06.774Z,34.77
2022-11-14T10:11:43.572Z,31.93
2022-11-14T10:13:32.839Z,30.63
2022-11-14T10:15:04.317Z,32.13
2022-11-14T10:16:41.230Z,30.40
2022-11-14T10:18:06.289Z,28.00
2022-11-14T10:19:49.918Z,28.40
2022-11-14T10:21:39.469Z,29.13
2022-11-14T10:23:15.192Z,23.77
2022-11-14T10:24:46.779Z,23.70
2022-11-14T10:26:19.768Z,22.10
2022-11-14T10:28:16.925Z,23.97
2022-11-14T10:29:57.056Z,22.10
2022-11-14T10:31:34.448Z,22.70
2022-11-14T10:33:21.124Z,22.30
2022-11-14T10:34:48.062Z,21.80
2022-11-14T10:36:27.707Z,23.20
2022-11-14T10:38:09.486Z,22.50
2022-11-14T10:39:34.441Z,23.17
2022-11-14T10:41:01.797Z,22.27
2022-11-14T10:42:37.185Z,23.47
2022-11-14T10:44:00.046Z,22.73
2022-11-14T10:45:43.223Z,22.93
2022-11-14T10:47:10.903Z,21.90
2022-11-14T10:48:47.073Z,23.50
2022-11-14T10:50:42.047Z,23.53
2022-11-14T10:52:10.648Z,23.03
2022-11-14T10:53:43.299Z,23.47
2022-11-14T10:55:17.699Z,22.63
2022-11-14T10:56:53.743Z,21.93
2022-11-14T10:58:15.862Z,24.50
2022-11-14T10:59:37.998Z,24.07
2022-11-14T11:01:37.380Z,23.50
2022-11-14T11:02:59.518Z,25.00
2022-11-14T11:04:36.889Z,24.40
2022-11-14T11:05:59.318Z,22.20
2022-11-14T11:07:43.414Z,22.90
2022-11-14T11:09:31.879Z,24.03
2022-11-14T11:11:17.819Z,21.87
2022-11-14T11:12:53.757Z,23.90
2022-11-14T11:14:19.593Z,24.70
2022-11-14T11:15:42.917Z,23.23
2022-11-14T11:17:09.094Z,25.50
2022-11-14T11:18:36.153Z,24.50
2022-11-14T11:20:28.971Z,23.20
2022-11-14T11:21:52.956Z,22.50
2022-11-14T11:23:19.927Z,22.37
2022-11-14T11:24:42.373Z,22.07
2022-11-14T11:26:20.505Z,22.80
2022-11-14T11:27:42.574Z,23.57
2022-11-14T11:29:10.685Z,23.60
2022-11-14T11:30:33.439Z,22.73
2022-11-14T11:31:58.279Z,22.47
2022-11-14T11:33:20.277Z,24.67
2022-11-14T11:34:42.691Z,25.83
2022-11-14T11:36:17.681Z,24.00
2022-11-14T11:37:54.710Z,23.73
2022-11-14T11:39:27.732Z,24.80
2022-11-14T11:40:54.303Z,24.10
2022-11-14T11:44:38.037Z,25.23
2022-11-14T11:46:04.600Z,23.87
2022-11-14T11:47:29.596Z,24.07
2022-11-14T11:48:57.482Z,25.40
2022-11-14T11:50:21.517Z,22.90
2022-11-14T11:51:45.743Z,23.07
2022-11-14T11:53:29.224Z,22.70
2022-11-14T11:55:03.893Z,23.40
2022-11-14T11:56:31.605Z,24.20
2022-11-14T11:58:29.590Z,24.67
2022-11-14T12:00:03.528Z,23.40
2022-11-14T12:01:25.638Z,22.60
2022-11-14T12:02:52.778Z,23.60
2022-11-14T12:04:15.033Z,22.47
2022-11-14T12:06:05.301Z,23.97
2022-11-14T12:07:44.578Z,22.70
2022-11-14T12:09:19.298Z,21.80
2022-11-14T12:10:42.789Z,22.67
2022-11-14T12:12:42.892Z,23.10
2022-11-14T12:14:04.940Z,21.30
2022-11-14T12:15:52.540Z,22.23
2022-11-14T12:17:23.354Z,21.90
2022-11-14T12:19:16.846Z,23.97
2022-11-14T12:21:05.576Z,22.63
2022-11-14T12:22:36.700Z,25.30
2022-11-14T12:24:30.947Z,22.57
2022-11-14T12:26:17.888Z,23.13
2022-11-14T12:28:03.099Z,22.50
2022-11-14T12:29:39.880Z,21.60
2022-11-14T12:31:05.507Z,22.37
2022-11-14T12:32:33.829Z,22.57
2022-11-14T12:34:20.771Z,22.73
2022-11-14T12:35:53.537Z,23.20
2022-11-14T12:37:37.191Z,22.07
2022-11-14T12:39:01.064Z,21.83
2022-11-14T12:40:34.112Z,23.77
2022-11-14T12:42:04.268Z,22.10
2022-11-14T12:43:53.065Z,20.43
2022-11-14T12:45:36.736Z,23.90
2022-11-14T12:47:05.320Z,23.10
2022-11-14T12:48:27.413Z,22.87
2022-11-14T12:49:52.823Z,23.97
2022-11-14T12:51:27.447Z,22.57
2022-11-14T12:52:54.873Z,23.27
2022-11-14T12:54:42.648Z,22.63
2022-11-14T12:56:30.384Z,22.43
2022-11-14T12:58:24.464Z,21.40
2022-11-14T13:00:03.983Z,20.47
2022-11-14T13:01:53.071Z,23.17
2022-11-14T13:03:36.334Z,21.93
2022-11-14T13:05:22.149Z,21.20
2022-11-14T13:07:21.653Z,21.83
2022-11-14T13:09:21.046Z,21.10
2022-11-14T13:10:43.184Z,22.10
2022-11-14T13:12:52.479Z,23.20
2022-11-14T13:14:33.159Z,21.40
2022-11-14T13:16:15.500Z,23.93
2022-11-14T13:17:56.517Z,21.40
2022-11-14T13:19:40.440Z,22.57
2022-11-14T13:21:35.322Z,22.77
2022-11-14T13:22:57.384Z,23.30
2022-11-14T13:24:20.467Z,22.70
2022-11-14T13:25:42.550Z,23.47
2022-11-14T13:27:52.414Z,24.67
2022-11-14T13:29:41.511Z,22.93
2022-11-14T13:31:35.097Z,22.67
2022-11-14T13:32:57.261Z,24.20
2022-11-14T13:34:40.244Z,24.07
2022-11-14T13:36:05.867Z,24.83
2022-11-14T13:37:39.978Z,24.00
2022-11-14T13:39:10.928Z,25.50
2022-11-14T13:41:06.803Z,24.43
2022-11-14T13:42:53.308Z,23.47
2022-11-14T13:44:33.506Z,24.13
2022-11-14T13:46:05.830Z,24.53
2022-11-14T13:47:40.899Z,25.00
2022-11-14T13:49:32.427Z,24.50
2022-11-14T13:51:15.271Z,26.03
2022-11-14T13:52:46.384Z,25.13
2022-11-14T13:54:18.078Z,25.20
2022-11-14T13:56:05.068Z,25.47
2022-11-14T13:58:02.998Z,23.63
2022-11-14T13:59:41.185Z,24.47
2022-11-14T14:01:28.055Z,25.00
2022-11-14T14:03:02.926Z,25.70
2022-11-14T14:04:43.060Z,24.20
2022-11-14T14:06:12.148Z,24.17
2022-11-14T14:08:11.999Z,26.17
2022-11-14T14:09:52.621Z,24.50
2022-11-14T14:11:30.164Z,27.23
2022-11-14T14:13:40.532Z,24.90
2022-11-14T14:15:05.681Z,24.43
2022-11-14T14:16:30.917Z,26.27
2022-11-14T14:18:18.713Z,25.90
2022-11-14T14:19:58.969Z,25.80
2022-11-14T14:21:44.527Z,24.90
2022-11-14T14:23:51.822Z,23.77
2022-11-14T14:25:43.323Z,24.70
2022-11-14T14:27:20.459Z,26.40
2022-11-14T14:28:48.151Z,28.07
2022-11-14T14:30:16.376Z,26.00
2022-11-14T14:31:40.598Z,24.33
2022-11-14T14:33:03.821Z,28.33
2022-11-14T14:34:34.269Z,28.23
2022-11-14T14:35:56.348Z,28.43
2022-11-14T14:37:24.314Z,26.83
2022-11-14T14:38:47.503Z,25.57
2022-11-14T14:40:24.163Z,28.77
2022-11-14T14:41:46.765Z,28.67
2022-11-14T14:43:23.316Z,29.40
2022-11-14T14:44:48.214Z,28.70
2022-11-14T14:46:10.835Z,25.50
2022-11-14T14:47:33.162Z,27.67
2022-11-14T14:48:55.668Z,27.33
2022-11-14T14:50:26.719Z,25.70
2022-11-14T14:51:48.842Z,25.47
2022-11-14T14:53:29.883Z,26.33
2022-11-14T14:54:56.353Z,26.33
2022-11-14T14:56:20.922Z,26.20
2022-11-14T14:57:43.031Z,29.67
2022-11-14T14:59:21.118Z,28.80
2022-11-14T15:01:04.158Z,27.20
2022-11-14T15:02:26.922Z,26.33
2022-11-14T15:03:52.604Z,28.97
2022-11-14T15:05:29.242Z,27.40
2022-11-14T15:06:52.075Z,29.00
2022-11-14T15:08:16.403Z,28.37
2022-11-14T15:09:38.501Z,26.83
2022-11-14T15:11:01.879Z,28.23
2022-11-14T15:12:26.016Z,29.00
2022-11-14T15:13:54.562Z,27.03
2022-11-14T15:15:19.014Z,27.37
2022-11-14T15:16:41.885Z,26.30
2022-11-14T15:18:07.756Z,27.83
2022-11-14T15:19:39.360Z,26.93
2022-11-14T15:21:27.430Z,27.40
2022-11-14T15:23:08.545Z,26.77
2022-11-14T15:24:31.423Z,26.30
2022-11-14T15:26:03.246Z,26.87
2022-11-14T15:27:25.369Z,26.40
2022-11-14T15:28:47.640Z,28.30
2022-11-14T15:30:22.745Z,26.53
2022-11-14T15:31:47.921Z,28.43
2022-11-14T15:33:31.363Z,29.00
2022-11-14T15:35:30.697Z,26.37
2022-11-14T15:37:10.826Z,26.73
2022-11-14T15:38:48.455Z,27.70
2022-11-14T15:40:22.462Z,28.80
2022-11-14T15:41:44.515Z,27.83
2022-11-14T15:43:43.700Z,27.00
2022-11-14T15:46:33.787Z,28.40
2022-11-14T15:48:06.185Z,27.57
2022-11-14T15:49:28.442Z,30.20
2022-11-14T15:50:50.963Z,26.10
2022-11-14T15:52:27.211Z,29.03
2022-11-14T15:53:50.051Z,28.07
2022-11-14T15:55:20.968Z,26.97
2022-11-14T15:56:43.015Z,27.40
2022-11-14T15:58:27.683Z,28.33
2022-11-14T15:59:50.720Z,27.70
2022-11-14T16:01:21.433Z,27.67
2022-11-14T16:02:57.543Z,29.47
2022-11-14T16:04:21.833Z,28.40
2022-11-14T16:05:46.009Z,28.87
2022-11-14T16:07:14.667Z,30.77
2022-11-14T16:08:36.753Z,28.87
2022-11-14T16:09:58.967Z,31.50
2022-11-14T16:11:21.055Z,30.83
2022-11-14T16:12:45.756Z,30.33
2022-11-14T16:14:11.793Z,30.93
2022-11-14T16:15:33.864Z,28.57
2022-11-14T16:16:55.912Z,29.33
2022-11-14T16:18:18.042Z,31.03
2022-11-14T16:19:40.184Z,30.60
2022-11-14T16:21:02.405Z,29.63
2022-11-14T16:22:24.500Z,30.60
2022-11-14T16:23:48.438Z,31.30
2022-11-14T16:25:18.072Z,30.90
2022-11-14T16:26:41.089Z,30.90
2022-11-14T16:28:03.227Z,30.60
2022-11-14T16:29:25.995Z,30.57
2022-11-14T16:30:48.101Z,33.43
2022-11-14T16:32:11.040Z,32.93
2022-11-14T16:33:33.425Z,30.37
2022-11-14T16:34:55.778Z,33.37
2022-11-14T16:36:21.313Z,32.23
2022-11-14T16:37:44.153Z,30.70
2022-11-14T16:39:11.189Z,31.23
2022-11-14T16:40:33.317Z,31.83
2022-11-14T16:42:01.628Z,32.37
2022-11-14T16:43:23.798Z,32.10
2022-11-14T16:44:50.528Z,31.40
2022-11-14T16:46:13.000Z,32.10
2022-11-14T16:47:35.265Z,31.07
2022-11-14T16:48:57.325Z,31.90
2022-11-14T16:50:20.043Z,33.27
2022-11-14T16:51:48.967Z,34.20
2022-11-14T16:53:11.893Z,33.80
2022-11-14T16:54:34.013Z,32.10
2022-11-14T16:55:57.067Z,30.40
2022-11-14T16:57:19.572Z,31.00
2022-11-14T16:58:42.001Z,33.23
2022-11-14T17:00:05.929Z,32.07
2022-11-14T17:01:28.105Z,31.60
2022-11-14T17:02:50.237Z,31.70
2022-11-14T17:04:12.733Z,34.30
2022-11-14T17:05:34.837Z,34.27
2022-11-14T17:06:57.061Z,30.73
2022-11-14T17:08:19.420Z,31.43
2022-11-14T17:09:41.496Z,32.80
2022-11-14T17:11:09.930Z,30.33
2022-11-14T17:12:33.497Z,30.20
2022-11-14T17:13:56.734Z,33.37
2022-11-14T17:15:18.876Z,32.77
2022-11-14T17:16:41.089Z,31.57
2022-11-14T17:18:04.118Z,33.00
2022-11-14T17:19:26.410Z,32.83
2022-11-14T17:20:48.495Z,33.03
2022-11-14T17:22:10.701Z,31.57
2022-11-14T17:23:33.694Z,32.20
2022-11-14T17:24:55.746Z,29.50
2022-11-14T17:26:17.884Z,32.70
2022-11-14T17:27:40.068Z,31.10
2022-11-14T17:29:03.214Z,30.43
2022-11-14T17:30:25.325Z,30.17
2022-11-14T17:31:47.579Z,32.80
2022-11-14T17:33:10.012Z,31.90
2022-11-14T17:34:32.541Z,30.93
2022-11-14T17:35:54.697Z,31.70
2022-11-14T17:37:16.942Z,29.93
2022-11-14T17:38:39.303Z,33.37
2022-11-14T17:40:01.683Z,34.40
2022-11-14T17:41:24.427Z,31.13
2022-11-14T17:42:46.530Z,29.70
2022-11-14T17:44:09.855Z,30.43
2022-11-14T17:45:31.962Z,29.90
2022-11-14T17:46:54.098Z,31.40
2022-11-14T17:48:16.280Z,32.07
2022-11-14T17:49:38.502Z,32.93
2022-11-14T17:51:10.396Z,31.63
2022-11-14T17:52:32.539Z,31.80
2022-11-14T17:53:54.856Z,33.33
2022-11-14T17:55:17.074Z,32.87
2022-11-14T17:56:45.739Z,32.30
2022-11-14T17:58:09.704Z,32.73
2022-11-14T17:59:31.828Z,31.60
2022-11-14T18:00:54.043Z,28.90
2022-11-14T18:02:17.585Z,30.23
2022-11-14T18:03:40.150Z,32.20
2022-11-14T18:05:02.243Z,30.20
2022-11-14T18:06:25.423Z,29.20
2022-11-14T18:07:47.605Z,31.27
2022-11-14T18:09:14.053Z,29.23
2022-11-14T18:10:36.948Z,31.60
2022-11-14T18:11:59.058Z,31.83
2022-11-14T18:13:21.130Z,30.90
2022-11-14T18:14:43.289Z,31.60
2022-11-14T18:16:10.071Z,32.40
2022-11-14T18:17:32.269Z,32.20
2022-11-14T18:18:55.961Z,31.93
2022-11-14T18:20:18.079Z,31.00
2022-11-14T18:21:43.092Z,29.80
2022-11-14T18:23:05.227Z,30.10
2022-11-14T18:24:27.361Z,30.90
2022-11-14T18:25:49.433Z,29.47
2022-11-14T18:27:11.526Z,31.67
2022-11-14T18:28:33.932Z,33.47
2022-11-14T18:30:08.048Z,32.50
2022-11-14T18:31:39.090Z,30.60
2022-11-14T18:33:01.254Z,30.77
2022-11-14T18:34:23.340Z,31.37
2022-11-14T18:35:55.617Z,32.53
2022-11-14T18:37:18.095Z,31.80
2022-11-14T18:38:41.162Z,31.50
2022-11-14T18:40:04.147Z,31.63
2022-11-14T18:41:26.245Z,32.20
2022-11-14T18:42:48.324Z,34.40
2022-11-14T18:44:10.444Z,29.87
2022-11-14T18:45:34.765Z,30.80